createdAt,value
2018-06-23T00:00:39.982Z,15.30
2018-06-23T00:01:44.162Z,15.30
2018-06-23T00:02:48.714Z,15.20
2018-06-23T00:03:53.685Z,15.20
2018-06-23T00:04:57.638Z,15.20
2018-06-23T00:06:01.681Z,15.20
2018-06-23T00:07:05.818Z,15.20
2018-06-23T00:09:13.162Z,15.20
2018-06-23T00:10:16.931Z,15.20
2018-06-23T00:11:20.651Z,15.20
2018-06-23T00:12:24.418Z,15.20
2018-06-23T00:13:28.514Z,15.20
2018-06-23T00:14:32.622Z,15.20
2018-06-23T00:15:36.740Z,15.20
2018-06-23T00:16:40.791Z,15.20
2018-06-23T00:17:44.758Z,15.20
2018-06-23T00:18:48.776Z,15.10
2018-06-23T00:19:52.779Z,15.20
2018-06-23T00:20:56.867Z,15.20
2018-06-23T00:22:00.976Z,15.20
2018-06-23T00:23:04.968Z,15.20
2018-06-23T00:24:09.179Z,15.20
2018-06-23T00:25:17.190Z,15.10
2018-06-23T00:26:26.553Z,15.10
2018-06-23T00:27:30.290Z,15.10
2018-06-23T00:28:34.132Z,15.00
2018-06-23T00:29:37.943Z,15.10
2018-06-23T00:30:41.750Z,15.10
2018-06-23T00:31:45.525Z,15.10
2018-06-23T00:32:50.199Z,15.00
2018-06-23T00:33:54.238Z,15.00
2018-06-23T00:34:58.251Z,15.00
2018-06-23T00:36:02.240Z,15.00
2018-06-23T00:37:06.807Z,15.00
2018-06-23T00:38:10.820Z,15.00
2018-06-23T00:39:15.072Z,15.00
2018-06-23T00:40:19.078Z,15.00
2018-06-23T00:41:23.259Z,15.00
2018-06-23T00:42:27.258Z,15.00
2018-06-23T00:43:31.322Z,15.00
2018-06-23T00:44:35.424Z,15.00
2018-06-23T00:45:39.726Z,14.90
2018-06-23T00:46:43.737Z,14.90
2018-06-23T00:47:47.776Z,14.90
2018-06-23T00:48:51.902Z,14.90
2018-06-23T00:49:56.316Z,14.80
2018-06-23T00:51:00.782Z,14.80
2018-06-23T00:52:04.762Z,14.90
2018-06-23T00:53:08.816Z,14.90
2018-06-23T00:54:12.811Z,14.90
2018-06-23T00:55:16.816Z,14.80
2018-06-23T00:56:20.858Z,14.90
2018-06-23T00:57:25.166Z,14.90
2018-06-23T00:58:31.555Z,14.90
2018-06-23T00:59:44.342Z,14.90
2018-06-23T01:00:48.349Z,14.90
2018-06-23T01:01:52.130Z,14.90
2018-06-23T01:02:56.040Z,14.90
2018-06-23T01:04:00.066Z,14.90
2018-06-23T01:05:03.889Z,14.90
2018-06-23T01:06:07.683Z,14.90
2018-06-23T01:07:11.482Z,15.00
2018-06-23T01:08:15.377Z,14.90
2018-06-23T01:09:19.158Z,14.90
2018-06-23T01:10:23.265Z,14.90
2018-06-23T01:11:27.211Z,14.80
2018-06-23T01:12:31.061Z,14.80
2018-06-23T01:13:34.958Z,14.80
2018-06-23T01:14:38.868Z,14.80
2018-06-23T01:15:43.022Z,14.80
2018-06-23T01:16:47.218Z,14.80
2018-06-23T01:17:51.017Z,14.80
2018-06-23T01:18:54.895Z,14.80
2018-06-23T01:19:58.703Z,14.80
2018-06-23T01:21:02.885Z,14.70
2018-06-23T01:22:06.933Z,14.70
2018-06-23T01:23:10.964Z,14.70
2018-06-23T01:24:14.970Z,14.70
2018-06-23T01:25:19.016Z,14.70
2018-06-23T01:26:23.047Z,14.70
2018-06-23T01:27:27.155Z,14.60
2018-06-23T01:28:31.228Z,14.90
2018-06-23T01:29:35.221Z,14.60
2018-06-23T01:30:39.027Z,14.70
2018-06-23T01:31:42.818Z,14.60
2018-06-23T01:32:46.575Z,14.60
2018-06-23T01:33:50.368Z,14.60
2018-06-23T01:34:54.161Z,14.60
2018-06-23T01:35:58.010Z,14.60
2018-06-23T01:37:01.798Z,14.60
2018-06-23T01:38:05.793Z,14.60
2018-06-23T01:39:11.586Z,14.60
2018-06-23T01:40:15.702Z,14.60
2018-06-23T01:41:19.735Z,14.60
2018-06-23T01:42:24.198Z,14.60
2018-06-23T01:43:28.232Z,14.60
2018-06-23T01:44:32.360Z,14.60
2018-06-23T01:45:36.384Z,14.60
2018-06-23T01:46:40.482Z,14.60
2018-06-23T01:47:45.635Z,14.60
2018-06-23T01:48:49.652Z,14.60
2018-06-23T01:49:53.662Z,14.60
2018-06-23T01:51:37.622Z,14.60
2018-06-23T01:52:41.651Z,14.60
2018-06-23T01:53:45.965Z,14.60
2018-06-23T01:54:50.004Z,14.60
2018-06-23T01:55:54.048Z,14.60
2018-06-23T01:56:58.267Z,14.60
2018-06-23T01:58:02.459Z,14.50
2018-06-23T01:59:06.551Z,14.60
2018-06-23T02:00:10.973Z,14.50
2018-06-23T02:01:15.016Z,14.50
2018-06-23T02:02:18.826Z,14.50
2018-06-23T02:03:22.628Z,14.50
2018-06-23T02:04:26.459Z,14.50
2018-06-23T02:05:30.543Z,14.50
2018-06-23T02:06:34.839Z,14.50
2018-06-23T02:07:38.767Z,14.50
2018-06-23T02:08:42.627Z,14.50
2018-06-23T02:10:49.875Z,14.50
2018-06-23T02:11:53.746Z,14.50
2018-06-23T02:12:57.548Z,14.50
2018-06-23T02:14:06.628Z,14.50
2018-06-23T02:16:19.859Z,14.50
2018-06-23T02:17:29.318Z,14.50
2018-06-23T02:20:43.210Z,14.50
2018-06-23T02:21:52.431Z,14.50
2018-06-23T02:23:01.586Z,14.50
2018-06-23T02:24:11.096Z,14.40
2018-06-23T02:25:20.193Z,14.40
2018-06-23T02:26:29.543Z,14.40
2018-06-23T02:27:38.765Z,14.40
2018-06-23T02:28:48.356Z,14.40
2018-06-23T02:29:58.301Z,14.40
2018-06-23T02:33:09.150Z,14.40
2018-06-23T02:34:18.581Z,14.40
2018-06-23T02:35:23.356Z,14.50
2018-06-23T02:36:27.400Z,14.50
2018-06-23T02:37:31.500Z,14.40
2018-06-23T02:38:35.561Z,14.40
2018-06-23T02:39:39.610Z,14.40
2018-06-23T02:40:43.700Z,14.40
2018-06-23T02:41:48.051Z,14.40
2018-06-23T02:42:52.161Z,14.40
2018-06-23T02:43:56.200Z,14.30
2018-06-23T02:45:00.448Z,14.30
2018-06-23T02:46:04.746Z,14.30
2018-06-23T02:47:08.783Z,14.30
2018-06-23T02:48:13.142Z,14.20
2018-06-23T02:49:17.212Z,14.10
2018-06-23T02:50:21.254Z,14.20
2018-06-23T02:51:25.775Z,14.20
2018-06-23T02:52:31.396Z,14.20
2018-06-23T02:53:35.741Z,14.20
2018-06-23T02:54:39.805Z,14.20
2018-06-23T02:55:43.805Z,14.20
2018-06-23T02:56:47.814Z,14.20
2018-06-23T02:57:51.864Z,14.20
2018-06-23T02:58:55.905Z,14.20
2018-06-23T03:00:00.224Z,14.20
2018-06-23T03:01:04.331Z,14.20
2018-06-23T03:02:08.360Z,14.20
2018-06-23T03:03:12.222Z,14.20
2018-06-23T03:04:17.526Z,14.20
2018-06-23T03:05:21.299Z,14.20
2018-06-23T03:06:25.408Z,14.10
2018-06-23T03:07:29.204Z,14.10
2018-06-23T03:08:33.095Z,14.10
2018-06-23T03:09:36.908Z,14.10
2018-06-23T03:10:40.893Z,14.20
2018-06-23T03:11:46.019Z,14.20
2018-06-23T03:12:50.151Z,14.20
2018-06-23T03:13:54.633Z,14.20
2018-06-23T03:14:58.720Z,14.20
2018-06-23T03:16:02.780Z,14.20
2018-06-23T03:17:12.452Z,14.20
2018-06-23T03:18:16.532Z,14.10
2018-06-23T03:19:20.594Z,14.10
2018-06-23T03:20:24.648Z,14.10
2018-06-23T03:22:32.610Z,14.20
2018-06-23T03:23:36.641Z,14.20
2018-06-23T03:24:40.725Z,14.20
2018-06-23T03:25:45.725Z,14.20
2018-06-23T03:26:49.739Z,14.20
2018-06-23T03:27:53.871Z,14.20
2018-06-23T03:28:57.935Z,14.20
2018-06-23T03:30:01.968Z,14.20
2018-06-23T03:31:06.310Z,14.20
2018-06-23T03:32:10.851Z,14.20
2018-06-23T03:33:14.686Z,14.10
2018-06-23T03:34:18.479Z,14.20
2018-06-23T03:35:22.291Z,14.10
2018-06-23T03:36:26.099Z,14.20
2018-06-23T03:37:29.912Z,14.20
2018-06-23T03:38:33.721Z,14.20
2018-06-23T03:39:37.698Z,14.20
2018-06-23T03:40:41.493Z,14.20
2018-06-23T03:41:45.343Z,14.20
2018-06-23T03:42:49.218Z,14.20
2018-06-23T03:43:53.310Z,14.20
2018-06-23T03:44:57.128Z,14.20
2018-06-23T03:46:00.880Z,14.20
2018-06-23T03:47:04.720Z,14.20
2018-06-23T03:48:08.824Z,14.20
2018-06-23T03:49:12.628Z,14.20
2018-06-23T03:50:16.459Z,14.20
2018-06-23T03:51:20.228Z,14.10
2018-06-23T03:52:24.103Z,14.10
2018-06-23T03:53:27.977Z,14.20
2018-06-23T03:54:32.258Z,14.10
2018-06-23T03:55:36.025Z,14.10
2018-06-23T03:56:39.823Z,14.10
2018-06-23T03:57:43.610Z,14.10
2018-06-23T03:58:47.428Z,14.10
2018-06-23T03:59:51.275Z,14.10
2018-06-23T04:00:57.042Z,14.10
2018-06-23T04:02:00.831Z,14.10
2018-06-23T04:03:04.652Z,14.10
2018-06-23T04:04:08.572Z,14.10
2018-06-23T04:05:12.480Z,14.10
2018-06-23T04:06:16.544Z,13.80
2018-06-23T04:07:20.863Z,14.10
2018-06-23T04:08:24.863Z,14.10
2018-06-23T04:09:28.918Z,14.10
2018-06-23T04:10:32.963Z,14.10
2018-06-23T04:11:36.976Z,14.10
2018-06-23T04:12:40.988Z,14.10
2018-06-23T04:13:44.897Z,14.10
2018-06-23T04:14:48.780Z,14.10
2018-06-23T04:15:52.575Z,14.10
2018-06-23T04:16:56.392Z,14.10
2018-06-23T04:18:00.173Z,14.10
2018-06-23T04:19:04.228Z,14.10
2018-06-23T04:20:08.155Z,14.10
2018-06-23T04:21:12.051Z,14.10
2018-06-23T04:22:15.867Z,14.10
2018-06-23T04:23:19.644Z,14.10
2018-06-23T04:24:23.421Z,14.10
2018-06-23T04:25:27.505Z,14.10
2018-06-23T04:26:31.323Z,14.10
2018-06-23T04:27:35.107Z,14.10
2018-06-23T04:28:38.859Z,14.10
2018-06-23T04:29:42.684Z,14.10
2018-06-23T04:30:46.560Z,14.00
2018-06-23T04:31:50.641Z,14.00
2018-06-23T04:32:54.417Z,14.00
2018-06-23T04:33:58.182Z,14.00
2018-06-23T04:35:02.012Z,14.00
2018-06-23T04:36:05.820Z,14.00
2018-06-23T04:37:09.715Z,14.00
2018-06-23T04:38:13.832Z,14.10
2018-06-23T04:39:17.623Z,14.00
2018-06-23T04:40:21.413Z,14.10
2018-06-23T04:41:25.218Z,14.00
2018-06-23T04:42:29.012Z,14.10
2018-06-23T04:43:32.955Z,14.00
2018-06-23T04:44:37.237Z,14.00
2018-06-23T04:45:41.099Z,14.00
2018-06-23T04:46:44.907Z,13.90
2018-06-23T04:47:48.704Z,13.90
2018-06-23T04:48:52.501Z,13.90
2018-06-23T04:49:56.275Z,13.90
2018-06-23T04:51:00.363Z,13.90
2018-06-23T04:52:04.207Z,13.70
2018-06-23T04:53:08.027Z,13.70
2018-06-23T04:54:12.142Z,13.70
2018-06-23T04:55:15.971Z,13.70
2018-06-23T04:56:19.796Z,13.80
2018-06-23T04:57:24.347Z,13.80
2018-06-23T04:58:28.361Z,13.80
2018-06-23T04:59:32.407Z,13.80
2018-06-23T05:00:36.451Z,13.90
2018-06-23T05:01:40.755Z,13.90
2018-06-23T05:02:44.768Z,13.90
2018-06-23T05:03:48.840Z,13.90
2018-06-23T05:04:53.355Z,13.90
2018-06-23T05:05:57.367Z,13.90
2018-06-23T05:09:09.999Z,13.90
2018-06-23T05:10:14.033Z,13.90
2018-06-23T05:11:18.084Z,14.00
2018-06-23T05:12:22.108Z,14.00
2018-06-23T05:13:26.127Z,13.90
2018-06-23T05:14:29.924Z,13.90
2018-06-23T05:15:33.706Z,13.90
2018-06-23T05:16:37.522Z,14.20
2018-06-23T05:17:41.322Z,13.90
2018-06-23T05:18:45.113Z,13.90
2018-06-23T05:19:49.214Z,13.90
2018-06-23T05:20:53.396Z,14.00
2018-06-23T05:21:57.699Z,14.00
2018-06-23T05:23:01.737Z,14.00
2018-06-23T05:24:05.838Z,14.00
2018-06-23T05:25:09.863Z,14.00
2018-06-23T05:26:13.905Z,14.00
2018-06-23T05:27:17.711Z,14.10
2018-06-23T05:28:21.479Z,14.10
2018-06-23T05:29:25.255Z,14.10
2018-06-23T05:30:29.213Z,14.10
2018-06-23T05:31:33.070Z,14.10
2018-06-23T05:32:36.894Z,14.20
2018-06-23T05:33:40.743Z,14.20
2018-06-23T05:34:44.787Z,14.20
2018-06-23T05:35:48.840Z,14.20
2018-06-23T05:36:52.865Z,14.20
2018-06-23T05:37:56.909Z,14.20
2018-06-23T05:39:00.954Z,14.20
2018-06-23T05:40:05.091Z,14.30
2018-06-23T05:41:08.999Z,14.30
2018-06-23T05:42:12.789Z,14.30
2018-06-23T05:43:16.624Z,14.30
2018-06-23T05:44:20.700Z,14.30
2018-06-23T05:45:24.758Z,14.30
2018-06-23T05:46:28.787Z,14.30
2018-06-23T05:47:32.832Z,14.30
2018-06-23T05:48:36.828Z,14.30
2018-06-23T05:49:40.854Z,14.40
2018-06-23T05:50:44.932Z,14.40
2018-06-23T05:51:48.939Z,14.40
2018-06-23T05:52:53.321Z,14.50
2018-06-23T05:53:57.139Z,14.50
2018-06-23T05:55:00.939Z,14.50
2018-06-23T05:56:04.855Z,14.50
2018-06-23T05:57:08.798Z,14.40
2018-06-23T05:58:12.859Z,14.50
2018-06-23T05:59:16.685Z,14.50
2018-06-23T06:00:20.528Z,14.50
2018-06-23T06:01:24.368Z,14.50
2018-06-23T06:02:30.070Z,14.40
2018-06-23T06:03:33.971Z,14.40
2018-06-23T06:04:37.866Z,14.40
2018-06-23T06:05:41.722Z,14.40
2018-06-23T06:06:45.572Z,14.40
2018-06-23T06:07:49.437Z,14.40
2018-06-23T06:08:53.672Z,14.50
2018-06-23T06:09:57.554Z,14.40
2018-06-23T06:11:01.384Z,14.40
2018-06-23T06:12:07.779Z,14.50
2018-06-23T06:13:17.437Z,14.50
2018-06-23T06:14:22.074Z,14.60
2018-06-23T06:15:26.157Z,14.60
2018-06-23T06:17:36.673Z,14.50
2018-06-23T06:18:40.719Z,14.60
2018-06-23T06:19:46.537Z,14.70
2018-06-23T06:20:50.581Z,14.70
2018-06-23T06:21:54.535Z,14.70
2018-06-23T06:22:58.498Z,14.80
2018-06-23T06:24:02.337Z,14.80
2018-06-23T06:25:06.539Z,14.80
2018-06-23T06:26:10.412Z,14.80
2018-06-23T06:27:14.230Z,14.90
2018-06-23T06:28:18.063Z,14.90
2018-06-23T06:29:22.024Z,14.80
2018-06-23T06:30:25.864Z,14.80
2018-06-23T06:31:30.715Z,14.70
2018-06-23T06:32:34.887Z,14.70
2018-06-23T06:33:38.969Z,14.70
2018-06-23T06:34:43.106Z,14.70
2018-06-23T06:35:49.426Z,14.70
2018-06-23T06:36:53.638Z,14.60
2018-06-23T06:37:57.666Z,14.60
2018-06-23T06:39:01.693Z,14.60
2018-06-23T06:40:07.083Z,14.60
2018-06-23T06:41:11.330Z,14.70
2018-06-23T06:42:15.295Z,14.70
2018-06-23T06:43:19.148Z,14.70
2018-06-23T06:44:22.966Z,14.80
2018-06-23T06:45:26.787Z,14.80
2018-06-23T06:46:31.011Z,14.80
2018-06-23T06:47:34.907Z,14.80
2018-06-23T06:48:38.747Z,14.80
2018-06-23T06:49:42.631Z,14.80
2018-06-23T06:50:46.544Z,14.70
2018-06-23T06:51:50.375Z,14.70
2018-06-23T06:52:54.221Z,14.70
2018-06-23T06:53:58.069Z,14.60
2018-06-23T06:55:01.872Z,14.60
2018-06-23T06:56:05.938Z,14.60
2018-06-23T06:57:10.209Z,14.60
2018-06-23T06:58:14.700Z,14.60
2018-06-23T06:59:19.366Z,14.60
2018-06-23T07:00:23.435Z,14.60
2018-06-23T07:01:27.472Z,14.70
2018-06-23T07:02:31.519Z,14.50
2018-06-23T07:03:35.597Z,14.50
2018-06-23T07:04:40.599Z,14.50
2018-06-23T07:05:45.472Z,14.60
2018-06-23T07:06:49.683Z,14.60
2018-06-23T07:07:53.556Z,14.60
2018-06-23T07:08:57.426Z,14.60
2018-06-23T07:10:01.221Z,14.60
2018-06-23T07:11:05.045Z,14.60
2018-06-23T07:12:08.851Z,14.60
2018-06-23T07:13:12.681Z,14.70
2018-06-23T07:14:16.469Z,14.70
2018-06-23T07:15:20.311Z,14.70
2018-06-23T07:16:24.141Z,14.70
2018-06-23T07:17:28.196Z,14.90
2018-06-23T07:18:32.319Z,14.80
2018-06-23T07:19:36.407Z,14.80
2018-06-23T07:20:40.560Z,14.90
2018-06-23T07:21:44.750Z,14.90
2018-06-23T07:22:48.814Z,15.00
2018-06-23T07:23:53.059Z,15.00
2018-06-23T07:24:57.171Z,14.90
2018-06-23T07:26:01.369Z,14.90
2018-06-23T07:27:05.779Z,14.80
2018-06-23T07:28:09.808Z,14.90
2018-06-23T07:29:13.879Z,15.00
2018-06-23T07:30:18.155Z,15.00
2018-06-23T07:31:22.280Z,15.00
2018-06-23T07:32:26.087Z,14.90
2018-06-23T07:33:29.930Z,14.90
2018-06-23T07:34:33.802Z,14.90
2018-06-23T07:35:38.050Z,14.90
2018-06-23T07:36:41.920Z,14.90
2018-06-23T07:37:45.821Z,14.90
2018-06-23T07:38:49.703Z,14.90
2018-06-23T07:39:53.561Z,15.00
2018-06-23T07:40:57.994Z,15.00
2018-06-23T07:42:01.836Z,15.00
2018-06-23T07:43:05.835Z,14.90
2018-06-23T07:44:10.017Z,14.90
2018-06-23T07:45:13.850Z,14.90
2018-06-23T07:46:17.651Z,14.90
2018-06-23T07:47:21.751Z,14.90
2018-06-23T07:48:25.644Z,14.80
2018-06-23T07:49:29.467Z,14.80
2018-06-23T07:50:33.511Z,14.80
2018-06-23T07:51:37.556Z,14.80
2018-06-23T07:52:41.588Z,14.70
2018-06-23T07:53:45.673Z,14.70
2018-06-23T07:54:49.705Z,14.70
2018-06-23T07:55:53.913Z,14.70
2018-06-23T07:56:57.984Z,14.70
2018-06-23T07:58:02.933Z,14.70
2018-06-23T07:59:07.316Z,14.80
2018-06-23T08:00:12.497Z,14.80
2018-06-23T08:01:16.708Z,14.90
2018-06-23T08:02:20.761Z,14.90
2018-06-23T08:03:24.920Z,14.90
2018-06-23T08:04:28.754Z,14.80
2018-06-23T08:05:32.919Z,14.80
2018-06-23T08:06:36.815Z,14.80
2018-06-23T08:07:40.713Z,14.80
2018-06-23T08:08:44.650Z,14.70
2018-06-23T08:09:48.695Z,14.70
2018-06-23T08:10:52.913Z,14.60
2018-06-23T08:11:57.040Z,14.60
2018-06-23T08:13:00.991Z,14.60
2018-06-23T08:14:05.063Z,14.60
2018-06-23T08:15:08.916Z,14.60
2018-06-23T08:16:12.811Z,14.60
2018-06-23T08:17:16.633Z,14.60
2018-06-23T08:18:20.580Z,14.70
2018-06-23T08:19:24.433Z,14.70
2018-06-23T08:20:28.587Z,14.70
2018-06-23T08:21:32.454Z,14.70
2018-06-23T08:22:36.332Z,14.70
2018-06-23T08:23:40.449Z,14.70
2018-06-23T08:24:44.571Z,14.80
2018-06-23T08:25:48.717Z,14.70
2018-06-23T08:26:53.112Z,14.80
2018-06-23T08:27:57.394Z,14.80
2018-06-23T08:29:01.462Z,14.80
2018-06-23T08:30:05.628Z,14.90
2018-06-23T08:31:09.985Z,14.90
2018-06-23T08:32:14.779Z,14.90
2018-06-23T08:33:18.852Z,15.00
2018-06-23T08:34:22.983Z,15.00
2018-06-23T08:35:27.089Z,15.00
2018-06-23T08:36:31.470Z,15.00
2018-06-23T08:37:35.756Z,15.00
2018-06-23T08:38:39.879Z,15.10
2018-06-23T08:39:44.025Z,15.10
2018-06-23T08:40:48.135Z,15.10
2018-06-23T08:41:52.199Z,15.10
2018-06-23T08:42:56.247Z,15.10
2018-06-23T08:44:00.372Z,15.20
2018-06-23T08:45:04.551Z,15.20
2018-06-23T08:46:08.612Z,15.20
2018-06-23T08:47:12.663Z,15.20
2018-06-23T08:48:16.762Z,15.40
2018-06-23T08:49:20.857Z,15.30
2018-06-23T08:50:25.042Z,15.40
2018-06-23T08:51:28.991Z,15.40
2018-06-23T08:52:32.913Z,15.50
2018-06-23T08:53:36.824Z,15.50
2018-06-23T08:54:40.760Z,15.50
2018-06-23T08:55:44.859Z,15.50
2018-06-23T08:56:48.827Z,15.50
2018-06-23T08:57:52.721Z,15.50
2018-06-23T08:58:56.536Z,15.60
2018-06-23T09:00:00.695Z,15.60
2018-06-23T09:01:04.739Z,15.60
2018-06-23T09:02:08.784Z,15.60
2018-06-23T09:03:12.931Z,15.70
2018-06-23T09:04:17.003Z,15.80
2018-06-23T09:05:21.288Z,15.80
2018-06-23T09:06:25.767Z,15.60
2018-06-23T09:07:29.861Z,15.90
2018-06-23T09:08:33.920Z,16.00
2018-06-23T09:09:38.019Z,16.00
2018-06-23T09:10:42.196Z,16.10
2018-06-23T09:11:46.331Z,16.10
2018-06-23T09:12:50.468Z,16.10
2018-06-23T09:13:54.561Z,16.20
2018-06-23T09:14:58.617Z,16.20
2018-06-23T09:16:02.713Z,16.30
2018-06-23T09:17:06.896Z,16.30
2018-06-23T09:18:11.170Z,16.30
2018-06-23T09:19:15.262Z,16.30
2018-06-23T09:20:19.359Z,16.30
2018-06-23T09:21:23.490Z,16.30
2018-06-23T09:22:28.473Z,16.20
2018-06-23T09:23:33.355Z,16.20
2018-06-23T09:24:37.431Z,16.20
2018-06-23T09:25:41.515Z,16.20
2018-06-23T09:26:45.800Z,16.20
2018-06-23T09:27:49.880Z,16.20
2018-06-23T09:28:54.016Z,16.10
2018-06-23T09:29:58.285Z,16.10
2018-06-23T09:31:02.134Z,16.10
2018-06-23T09:32:06.274Z,16.10
2018-06-23T09:33:10.280Z,16.10
2018-06-23T09:34:14.423Z,16.10
2018-06-23T09:35:18.495Z,16.10
2018-06-23T09:36:22.504Z,16.10
2018-06-23T09:37:26.607Z,16.10
2018-06-23T09:38:30.688Z,16.10
2018-06-23T09:39:34.752Z,16.10
2018-06-23T09:40:38.803Z,16.00
2018-06-23T09:41:42.894Z,16.00
2018-06-23T09:42:46.755Z,16.00
2018-06-23T09:43:50.585Z,16.00
2018-06-23T09:44:54.427Z,16.00
2018-06-23T09:45:58.281Z,16.00
2018-06-23T09:47:02.174Z,16.10
2018-06-23T09:48:06.180Z,16.10
2018-06-23T09:49:10.126Z,16.20
2018-06-23T09:50:14.211Z,16.20
2018-06-23T09:51:18.069Z,16.30
2018-06-23T09:52:22.288Z,16.30
2018-06-23T09:53:26.360Z,16.40
2018-06-23T09:54:30.419Z,16.40
2018-06-23T09:55:34.907Z,16.40
2018-06-23T09:56:57.442Z,16.40
2018-06-23T09:58:06.200Z,16.40
2018-06-23T09:59:10.398Z,16.40
2018-06-23T10:00:18.026Z,16.40
2018-06-23T10:01:23.812Z,16.40
2018-06-23T10:02:30.371Z,16.40
2018-06-23T10:03:35.511Z,16.40
2018-06-23T10:04:39.605Z,16.40
2018-06-23T10:05:43.948Z,16.30
2018-06-23T10:06:58.439Z,16.30
2018-06-23T10:08:02.825Z,16.30
2018-06-23T10:09:08.875Z,16.30
2018-06-23T10:10:13.244Z,16.30
2018-06-23T10:11:17.132Z,16.30
2018-06-23T10:12:21.087Z,16.20
2018-06-23T10:13:26.066Z,16.30
2018-06-23T10:14:30.045Z,16.30
2018-06-23T10:15:33.956Z,16.30
2018-06-23T10:16:38.226Z,16.30
2018-06-23T10:17:42.042Z,16.20
2018-06-23T10:18:46.005Z,16.30
2018-06-23T10:19:50.092Z,16.30
2018-06-23T10:20:54.152Z,16.30
2018-06-23T10:23:01.816Z,16.20
2018-06-23T10:24:05.944Z,16.10
2018-06-23T10:25:10.051Z,16.10
2018-06-23T10:26:14.550Z,16.10
2018-06-23T10:27:18.645Z,16.10
2018-06-23T10:28:22.811Z,16.10
2018-06-23T10:29:26.966Z,16.10
2018-06-23T10:30:31.177Z,16.10
2018-06-23T10:31:35.284Z,16.10
2018-06-23T10:32:39.359Z,16.20
2018-06-23T10:33:43.441Z,16.20
2018-06-23T10:34:47.556Z,16.20
2018-06-23T10:35:51.624Z,16.30
2018-06-23T10:36:55.855Z,16.30
2018-06-23T10:38:00.226Z,16.30
2018-06-23T10:39:06.536Z,16.30
2018-06-23T10:40:10.893Z,16.30
2018-06-23T10:41:15.024Z,16.30
2018-06-23T10:42:19.138Z,16.50
2018-06-23T10:43:23.242Z,16.50
2018-06-23T10:44:27.386Z,16.50
2018-06-23T10:45:31.552Z,16.50
2018-06-23T10:46:35.691Z,16.50
2018-06-23T10:47:39.856Z,16.50
2018-06-23T10:48:43.735Z,16.50
2018-06-23T10:49:48.583Z,16.50
2018-06-23T10:50:52.650Z,16.60
2018-06-23T10:51:56.505Z,16.60
2018-06-23T10:53:00.372Z,16.60
2018-06-23T10:54:04.400Z,16.60
2018-06-23T10:56:13.506Z,16.60
2018-06-23T10:57:22.135Z,16.60
2018-06-23T10:58:26.058Z,16.60
2018-06-23T10:59:29.976Z,16.60
2018-06-23T11:00:34.257Z,16.60
2018-06-23T11:01:38.332Z,16.60
2018-06-23T11:02:42.243Z,16.50
2018-06-23T11:03:55.180Z,16.60
2018-06-23T11:05:03.084Z,16.50
2018-06-23T11:06:07.834Z,16.60
2018-06-23T11:07:11.922Z,16.60
2018-06-23T11:08:16.114Z,16.50
2018-06-23T11:09:20.139Z,16.50
2018-06-23T11:10:24.621Z,16.50
2018-06-23T11:11:28.566Z,16.50
2018-06-23T11:12:32.471Z,16.50
2018-06-23T11:13:36.496Z,16.40
2018-06-23T11:14:40.296Z,16.40
2018-06-23T11:15:44.079Z,16.50
2018-06-23T11:16:49.114Z,16.50
2018-06-23T11:17:53.225Z,16.50
2018-06-23T11:18:57.525Z,16.50
2018-06-23T11:20:01.753Z,16.50
2018-06-23T11:21:05.898Z,16.50
2018-06-23T11:22:09.729Z,16.50
2018-06-23T11:23:14.784Z,16.50
2018-06-23T11:24:18.727Z,16.50
2018-06-23T11:25:22.863Z,16.50
2018-06-23T12:14:26.877Z,19.30
2018-06-23T12:15:32.091Z,19.40
2018-06-23T12:16:38.126Z,19.30
2018-06-23T12:17:42.833Z,19.20
2018-06-23T12:18:47.156Z,19.10
2018-06-23T12:19:51.646Z,18.90
2018-06-23T12:20:57.811Z,18.80
2018-06-23T12:22:02.315Z,18.60
2018-06-23T12:23:06.715Z,18.40
2018-06-23T12:24:11.757Z,18.30
2018-06-23T12:25:17.080Z,18.20
2018-06-23T12:27:50.693Z,18.00
2018-06-23T12:28:54.906Z,17.90
2018-06-23T12:29:59.407Z,17.70
2018-06-23T12:31:06.985Z,17.70
2018-06-23T12:32:12.018Z,17.60
2018-06-23T12:33:17.608Z,17.50
2018-06-23T12:34:22.606Z,17.40
2018-06-23T12:35:27.487Z,17.40
2018-06-23T12:36:32.642Z,17.30
2018-06-23T12:37:37.446Z,17.30
2018-06-23T12:38:41.830Z,17.30
2018-06-23T12:39:46.519Z,17.20
2018-06-23T12:40:51.260Z,17.20
2018-06-23T12:41:55.918Z,17.30
2018-06-23T12:43:02.487Z,17.20
2018-06-23T12:44:07.314Z,17.30
2018-06-23T12:45:11.524Z,17.30
2018-06-23T12:46:15.673Z,17.40
2018-06-23T12:47:20.543Z,17.40
2018-06-23T12:48:28.069Z,17.50
2018-06-23T12:49:49.973Z,17.60
2018-06-23T12:50:55.953Z,17.70
2018-06-23T12:52:01.373Z,17.70
2018-06-23T12:53:05.942Z,17.80
2018-06-23T12:54:10.033Z,17.80
2018-06-23T12:55:14.140Z,18.00
2018-06-23T12:56:18.231Z,18.00
2018-06-23T12:57:22.158Z,18.00
2018-06-23T12:58:26.222Z,18.10
2018-06-23T12:59:30.166Z,18.10
2018-06-23T13:00:34.717Z,18.10
2018-06-23T13:01:38.888Z,18.20
2018-06-23T13:02:42.919Z,18.20
2018-06-23T13:03:46.847Z,18.30
2018-06-23T13:04:50.946Z,18.30
2018-06-23T13:05:54.955Z,18.30
2018-06-23T13:06:58.959Z,18.20
2018-06-23T13:08:03.413Z,18.20
2018-06-23T13:09:10.821Z,18.10
2018-06-23T13:10:14.717Z,18.10
2018-06-23T13:11:18.646Z,18.20
2018-06-23T13:12:23.039Z,18.20
2018-06-23T13:13:27.468Z,18.20
2018-06-23T13:14:31.576Z,18.20
2018-06-23T13:15:35.645Z,18.20
2018-06-23T13:16:39.954Z,18.20
2018-06-23T13:17:45.038Z,18.30
2018-06-23T13:18:50.009Z,18.30
2018-06-23T13:19:55.472Z,18.50
2018-06-23T13:21:00.351Z,18.60
2018-06-23T13:22:05.910Z,18.70
2018-06-23T13:23:11.651Z,18.80
2018-06-23T13:24:16.977Z,18.80
2018-06-23T13:25:22.590Z,18.90
2018-06-23T13:26:28.857Z,19.00
2018-06-23T13:27:34.112Z,19.00
2018-06-23T13:28:39.280Z,19.10
2018-06-23T13:29:45.688Z,19.20
2018-06-23T13:30:50.650Z,19.20
2018-06-23T13:31:55.774Z,19.20
2018-06-23T13:33:00.945Z,19.30
2018-06-23T13:34:06.213Z,19.40
2018-06-23T13:35:11.480Z,19.40
2018-06-23T13:36:16.848Z,19.50
2018-06-23T13:37:21.832Z,19.60
2018-06-23T13:38:27.435Z,19.70
2018-06-23T13:39:32.889Z,19.80
2018-06-23T13:40:38.384Z,19.80
2018-06-23T13:41:43.439Z,19.90
2018-06-23T13:42:48.179Z,19.90
2018-06-23T13:43:52.933Z,19.90
2018-06-23T13:44:58.509Z,19.90
2018-06-23T13:46:03.235Z,19.80
2018-06-23T13:47:08.323Z,19.70
2018-06-23T13:48:12.795Z,19.70
2018-06-23T13:49:17.444Z,19.60
2018-06-23T13:50:22.515Z,19.60
2018-06-23T13:51:29.176Z,19.60
2018-06-23T13:52:34.013Z,19.40
2018-06-23T13:53:38.974Z,19.30
2018-06-23T13:54:44.014Z,19.30
2018-06-23T13:55:49.026Z,19.30
2018-06-23T13:56:53.738Z,19.30
2018-06-23T13:58:13.435Z,19.30
2018-06-23T13:59:19.404Z,19.40
2018-06-23T14:00:24.536Z,19.50
2018-06-23T14:01:31.119Z,19.50
2018-06-23T14:02:36.685Z,19.50
2018-06-23T14:03:42.458Z,19.60
2018-06-23T14:04:48.590Z,19.60
2018-06-23T14:05:54.884Z,19.60
2018-06-23T14:07:01.823Z,19.60
2018-06-23T14:09:37.844Z,19.50
2018-06-23T14:10:42.589Z,19.50
2018-06-23T14:11:47.148Z,19.50
2018-06-23T14:12:51.696Z,19.40
2018-06-23T14:13:57.584Z,19.40
2018-06-23T14:15:02.406Z,19.30
2018-06-23T14:16:07.353Z,19.20
2018-06-23T14:17:11.934Z,19.30
2018-06-23T14:18:24.363Z,19.20
2018-06-23T14:19:29.623Z,19.20
2018-06-23T14:20:34.852Z,18.90
2018-06-23T14:21:46.880Z,19.00
2018-06-23T14:22:52.593Z,18.90
2018-06-23T14:23:57.882Z,18.90
2018-06-23T14:25:02.645Z,18.90
2018-06-23T14:26:08.663Z,18.90
2018-06-23T14:27:13.040Z,18.90
2018-06-23T14:28:17.692Z,18.90
2018-06-23T14:29:22.438Z,19.00
2018-06-23T14:30:26.854Z,19.00
2018-06-23T14:31:31.481Z,19.00
2018-06-23T14:32:36.173Z,19.00
2018-06-23T14:33:40.516Z,19.10
2018-06-23T14:34:44.898Z,19.10
2018-06-23T14:35:49.033Z,19.10
2018-06-23T14:36:53.161Z,19.10
2018-06-23T14:37:57.347Z,19.10
2018-06-23T14:39:01.872Z,19.10
2018-06-23T14:40:06.384Z,19.10
2018-06-23T14:41:10.745Z,19.10
2018-06-23T14:42:15.741Z,19.10
2018-06-23T14:43:20.167Z,19.10
2018-06-23T14:44:24.709Z,19.20
2018-06-23T14:46:32.778Z,19.20
2018-06-23T14:47:37.373Z,19.20
2018-06-23T14:48:41.721Z,19.10
2018-06-23T14:49:46.065Z,19.10
2018-06-23T14:50:50.329Z,19.00
2018-06-23T14:51:54.790Z,19.00
2018-06-23T14:52:59.265Z,19.20
2018-06-23T14:54:03.777Z,19.00
2018-06-23T14:55:08.046Z,19.00
2018-06-23T14:56:12.533Z,19.10
2018-06-23T14:57:16.504Z,19.00